San Francisco - 18nm West Of San Francisco, Ca (46026) Wave Buoy

12:50pm - Thu 26th Nov 2015 All times are PST. -8 hours from GMT.

  • Sig Wave height 4.9ft
  • Swell Direction
  • Peak Period 10s
  • Average Period 7s
  • Wind
    4mph, 9mph gusts
  • Sea Temp 55°f
  • Air Temp 50°f
  • Sea Pressure 1019.5mb
  • San Francisco - 18nm West Of San Francisco, Ca
  • San Francisco - 18nm West Of San Francisco, Ca

More Historic Weather Station data

Upgrade to MSW Pro to gain access to the past 30 days of data for over 8000 Wavebouys and Weather Stations around the globe.

Join Pro

Comparision Forecast

View Surf forecast
Thu 11/26 12:50pm 5ft 10s 7s 4 9 mph 1019.5mb 55f 50f
11:50am 4.5ft 9s 6s 11 13 mph 1019.7mb 54f 49f
10:50am 4.5ft 11s 6s 11 13 mph 1020.3mb 54f 49f
9:50am 4.5ft 10s 6s 16 18 mph 1019.9mb 54f 48f
8:50am 5ft 10s 7s 9 13 mph 1019.6mb 54f 49f
7:50am 5ft 9s 7s 11 16 mph 1019mb 54f 49f
6:50am 5.5ft 10s 7s 11 13 mph 1018.5mb 54f 49f
5:50am 5ft 9s 7s 11 13 mph 1018.1mb 54f 50f
4:50am 7ft 9s 8s 7 11 mph 1017.9mb 54f 50f
3:50am 7ft 10s 8s 9 13 mph 1017.6mb 54f 51f
2:50am 7ft 9s 8s 9 13 mph 1017.4mb 54f 51f
1:50am 7ft 11s 8s 7 11 mph 1017.1mb 54f 51f
12:50am 7.5ft 8s 8s 7 9 mph 1016.8mb 54f 51f
Wed 11/25 11:50pm 8ft 11s 8s 4 7 mph 1016.7mb 54f 52f
10:50pm 8ft 11s 8s 4 7 mph 1016.6mb 54f 51f
9:50pm 7.5ft 11s 8s 2 4 mph 1016.4mb 54f 52f
8:50pm 8ft 11s 8s 2 4 mph 1016mb 54f 51f
7:50pm 7.5ft 12s 8s 4 7 mph 1015.9mb 55f 52f
6:50pm 8ft 12s 8s 7 9 mph 1015.7mb 55f 52f
5:50pm 8ft 9s 7s 9 13 mph 1015.4mb 55f 52f
4:50pm 7.5ft 8s 7s 13 18 mph 1015.1mb 55f 52f
3:50pm 7.5ft 13s 7s 13 16 mph 1014.4mb 55f 52f
2:50pm 8ft 12s 7s 16 18 mph 1014.2mb 55f 51f
1:50pm 8ft 11s 7s 16 20 mph 1013.8mb 55f 51f
12:50pm 8ft 11s 7s 18 22 mph 1013.5mb 55f 50f
11:50am 8.5ft 11s 7s 25 27 mph 1013.7mb 55f 50f
10:50am 9.5ft 11s 7s 25 29 mph 1014mb 55f 50f
9:50am 10ft 13s 7s 22 27 mph 1014.2mb 55f 50f
8:50am 11ft 11s 8s 25 29 mph 1014mb 55f 51f
7:50am 10ft 12s 8s 25 31 mph 1013.9mb 55f 51f
6:50am 10ft 13s 9s 20 25 mph 1013.8mb 55f 50f
5:50am 11ft 14s 9s 13 16 mph 1013.3mb 55f 49f
4:50am 11ft 13s 9s 11 16 mph 1013.1mb 55f 48f
3:50am 10ft 14s 9s 18 22 mph 1012.9mb 55f 49f
2:50am 11ft 14s 9s 13 18 mph 1012.8mb 55f 50f
1:50am 9.5ft 14s 8s 9 13 mph 1012.1mb 55f 50f
12:50am 12ft 13s 9s 18 22 mph 1011.9mb 55f 51f
Tue 11/24 11:50pm 9.5ft 13s 9s 16 22 mph 1012mb 55f 51f
10:50pm 10ft 12s 9s 11 16 mph 1012.3mb 55f 51f
9:50pm 9ft 14s 8s 13 18 mph 1012.6mb 55f 52f
8:50pm 9.5ft 12s 8s 16 20 mph 1012.6mb 55f 52f
7:50pm 8.5ft 11s 8s 13 18 mph 1012.9mb 55f 51f
6:50pm 8.5ft 13s 8s 18 22 mph 1013.1mb 55f 52f
5:50pm 7.5ft 9s 7s 13 18 mph 1013.3mb 55f 52f
4:50pm 7.5ft 8s 7s 13 16 mph 1013.4mb 55f 52f
3:50pm 7ft 14s 6s 16 20 mph 1013.5mb 55f 53f
2:50pm 7ft 13s 6s 25 29 mph 1013mb 55f 54f
1:50pm 6.5ft 6s 6s 22 29 mph 1012.7mb 55f 53f
12:50pm 7ft 13s 6s 25 29 mph 1012.6mb 55f 53f
11:50am 6ft 13s 5s 29 36 mph 1012.7mb 55f 53f
10:50am 5ft 12s 5s 29 34 mph 1012.8mb 55f 54f
9:50am 5ft 13s 6s 27 36 mph 1012.1mb 55f 54f
8:50am 4.5ft 13s 7s 16 18 mph 1011.7mb 55f 55f
7:50am 4.5ft 12s 9s 13
1011.7mb 55f 55f
6:50am 5ft 14s 9s 7
1012mb 55f 55f
5:50am 4ft 14s 8s 4
1012.3mb 55f 55f
4:50am 5ft 14s 9s 4
1012.5mb 55f 55f
3:50am 5ft 15s 10s 4 7 mph 1012.7mb 55f 55f
2:50am 5ft 15s 10s 4 7 mph 1013.5mb 55f 56f
1:50am 4.5ft 15s 9s 7 9 mph 1013.5mb 55f 56f
12:50am 4.5ft 14s 9s 7 9 mph 1013.3mb 55f 56f
Mon 11/23 11:50pm 4.5ft 14s 10s 7 9 mph 1013.8mb 55f 55f
10:50pm 4.5ft 14s 9s 9
1014.2mb 55f 55f
9:50pm 4ft 15s 9s 7 9 mph 1014mb 55f 55f
8:50pm 3.5ft 15s 9s 7
1014mb 55f 55f
7:50pm 3.5ft 15s 8s 7
1013.8mb 55f 54f
6:50pm 3.5ft 15s 8s 7
1013.9mb 55f 54f
5:50pm 3.5ft 15s 8s 4
1014.1mb 55f 54f
4:50pm 3.5ft 15s 8s 9 11 mph 1014.4mb 55f 54f
3:50pm 3.5ft 16s 7s 7 9 mph 1014.3mb 55f 54f
2:50pm 3ft 15s 7s 7 11 mph 1013.8mb 55f 53f
1:50pm 3ft 16s 7s 11 13 mph 1013.9mb 55f 53f
12:50pm 3ft 16s 8s 9 11 mph 1014.1mb 55f 53f
11:50am 2.5ft 16s 7s 4 7 mph 1014.3mb 55f 52f
10:50am 2.5ft 16s 7s 9 11 mph 1014.8mb 55f 53f
9:50am 2.5ft 16s 7s 7 11 mph 1014.6mb 55f 53f
8:50am 3ft 16s 7s 7 9 mph 1014.1mb 55f 52f
7:50am 3ft 16s 7s  -  2 mph 1013.5mb 55f 52f
6:50am 2.5ft 13s 6s 7 11 mph 1013mb 55f 51f
5:50am 3ft 10s 7s 9 11 mph 1012.8mb 55f 51f
4:50am 2.5ft 11s 7s 4 7 mph 1012.5mb 55f 52f
3:50am 2.5ft 16s 6s 7 9 mph 1012.6mb 55f 51f
2:50am 2.5ft 10s 6s 7 9 mph 1012.8mb 55f 50f
1:50am 2.5ft 10s 6s 7 9 mph 1012.7mb 55f 50f
12:50am 2.5ft 11s 6s 4 7 mph 1012.7mb 55f 50f
Sun 11/22 11:50pm 2.5ft 11s 6s 7 9 mph 1013mb 55f 50f
10:50pm 2.5ft 11s 5s 11
1013.4mb 55f 51f